Time;durP1;ratioP1;P1;durP2;ratioP2;P2;SDS_P1;SDS_P2;PMS_P1;PMS_P2;Temp;Humidity;BMP_temperature;BMP_pressure;BME280_temperature;BME280_humidity;BME280_pressure;Samples;Min_cycle;Max_cycle;Signal;HPM_P1;HPM_P2
2022/05/03 00:01:32;;;;;;;2.22;1.70;;;14.60;63.60;;;;;;4981779;28;20027;-85
2022/05/03 00:04:01;;;;;;;4.25;1.52;;;14.50;63.70;;;;;;4964025;28;20034;-85
2022/05/03 00:06:47;;;;;;;2.63;1.67;;;14.50;64.00;;;;;;4984117;28;20121;-85
2022/05/03 00:09:20;;;;;;;3.75;1.60;;;14.50;64.10;;;;;;4983857;28;20019;-84
2022/05/03 00:12:01;;;;;;;2.38;1.67;;;14.40;64.10;;;;;;4984167;28;20026;-85
2022/05/03 00:14:43;;;;;;;2.72;1.67;;;14.40;64.20;;;;;;4984981;28;20445;-86
2022/05/03 00:17:10;;;;;;;2.67;1.65;;;14.30;64.20;;;;;;5004626;28;20027;-85
2022/05/03 00:19:36;;;;;;;2.83;1.63;;;14.30;64.10;;;;;;5002391;28;20022;-84
2022/05/03 00:22:03;;;;;;;3.13;1.70;;;14.20;64.20;;;;;;4984616;28;20038;-85
2022/05/03 00:24:30;;;;;;;3.17;1.80;;;14.20;64.50;;;;;;4988154;28;20030;-84
2022/05/03 00:26:56;;;;;;;3.92;1.70;;;14.10;64.80;;;;;;4985676;28;20034;-85
2022/05/03 00:29:22;;;;;;;3.55;1.80;;;14.10;65.00;;;;;;4967310;28;20037;-85
2022/05/03 00:31:48;;;;;;;3.63;1.80;;;14.00;64.80;;;;;;4951687;28;20363;-85
2022/05/03 00:34:16;;;;;;;3.08;1.80;;;14.00;64.90;;;;;;4983308;28;20477;-85
2022/05/03 00:36:42;;;;;;;4.15;2.08;;;14.00;65.10;;;;;;5001102;28;20053;-85
2022/05/03 00:39:08;;;;;;;5.07;1.77;;;13.90;65.20;;;;;;4954850;28;20026;-84
2022/05/03 00:41:44;;;;;;;4.15;2.28;;;13.90;65.60;;;;;;4953233;28;20031;-85
2022/05/03 00:47:20;;;;;;;2.90;2.15;;;13.80;66.40;;;;;;5000579;28;20122;-85
2022/05/03 00:49:59;;;;;;;2.90;1.80;;;13.80;66.40;;;;;;5000693;28;20466;-84
2022/05/03 00:52:37;;;;;;;4.22;2.25;;;13.70;66.60;;;;;;4984048;28;20065;-85
2022/05/03 00:55:25;;;;;;;3.00;2.00;;;13.70;66.90;;;;;;5001054;28;20018;-85
2022/05/03 00:58:12;;;;;;;4.68;2.30;;;13.60;67.00;;;;;;5000195;28;20108;-85
2022/05/03 01:00:55;;;;;;;4.18;2.13;;;13.60;67.20;;;;;;4982814;28;20058;-85
2022/05/03 01:03:36;;;;;;;4.88;2.20;;;13.50;67.30;;;;;;4982959;28;20504;-86
2022/05/03 01:06:25;;;;;;;4.93;2.13;;;13.50;67.40;;;;;;4983099;28;20065;-85
2022/05/03 01:09:22;;;;;;;4.25;2.22;;;13.50;67.40;;;;;;4982966;28;20044;-85
2022/05/03 01:12:09;;;;;;;3.45;1.95;;;13.40;67.30;;;;;;4998098;28;20070;-84
2022/05/03 01:15:03;;;;;;;6.70;2.60;;;13.40;67.40;;;;;;4979871;28;20073;-83
2022/05/03 01:17:51;;;;;;;4.93;2.03;;;13.40;67.70;;;;;;4979822;28;20541;-83
2022/05/03 01:21:06;;;;;;;4.40;2.13;;;13.30;67.60;;;;;;4979934;28;20023;-83
2022/05/03 01:24:17;;;;;;;3.45;2.25;;;13.20;67.60;;;;;;4988569;28;20125;-83
2022/05/03 01:27:28;;;;;;;4.50;2.50;;;13.20;67.80;;;;;;4939593;29;20110;-83
2022/05/03 01:29:59;;;;;;;3.90;2.08;;;13.10;68.10;;;;;;4979640;28;20022;-83
2022/05/03 01:32:25;;;;;;;3.40;2.28;;;13.10;68.50;;;;;;4963569;28;20038;-84
2022/05/03 01:34:52;;;;;;;4.63;2.38;;;13.10;68.80;;;;;;4963471;28;20030;-84
2022/05/03 01:37:51;;;;;;;3.40;2.30;;;13.00;68.90;;;;;;4979680;28;20035;-84
2022/05/03 01:40:31;;;;;;;4.88;2.70;;;13.00;69.30;;;;;;4979581;28;20037;-84
2022/05/03 01:43:06;;;;;;;4.15;2.47;;;13.00;69.40;;;;;;4979347;28;20022;-84
2022/05/03 01:45:42;;;;;;;3.70;2.50;;;12.90;69.50;;;;;;4996460;28;20029;-84
2022/05/03 01:52:08;;;;;;;4.97;2.60;;;12.90;69.70;;;;;;4996546;28;20466;-84
2022/05/03 01:55:07;;;;;;;3.45;2.35;;;12.80;70.00;;;;;;4978947;28;20023;-84
2022/05/03 01:57:39;;;;;;;4.05;2.40;;;12.80;70.10;;;;;;4978854;28;20030;-85
2022/05/03 02:00:07;;;;;;;2.95;2.20;;;12.70;70.00;;;;;;4996950;28;20062;-84
2022/05/03 02:03:01;;;;;;;5.28;2.83;;;12.70;70.00;;;;;;4996312;28;20058;-85
2022/05/03 02:05:36;;;;;;;4.88;2.80;;;12.60;69.80;;;;;;4996208;28;20026;-86
2022/05/03 02:08:02;;;;;;;5.00;2.50;;;12.60;69.80;;;;;;4979203;28;20034;-84
2022/05/03 02:11:01;;;;;;;6.07;2.85;;;12.60;69.90;;;;;;4963157;28;20031;-85
2022/05/03 02:16:41;;;;;;;7.28;2.88;;;12.50;70.10;;;;;;4996268;28;20387;-85
2022/05/03 02:19:22;;;;;;;4.10;2.60;;;12.40;70.20;;;;;;4963922;28;20129;-84
2022/05/03 02:22:02;;;;;;;5.90;2.75;;;12.40;70.70;;;;;;4979009;28;20416;-84
2022/05/03 02:24:39;;;;;;;4.75;2.47;;;12.40;71.00;;;;;;4978610;28;20080;-84
2022/05/03 02:27:10;;;;;;;4.32;2.50;;;12.30;70.90;;;;;;4978898;28;20030;-84
2022/05/03 02:29:45;;;;;;;6.50;2.67;;;12.30;71.10;;;;;;4996256;28;20038;-84
2022/05/03 02:32:15;;;;;;;4.55;2.70;;;12.30;71.40;;;;;;4978687;28;20030;-84
2022/05/03 02:34:52;;;;;;;4.28;2.88;;;12.20;71.60;;;;;;4962761;28;20026;-84
2022/05/03 02:37:19;;;;;;;6.75;3.25;;;12.20;71.70;;;;;;4995551;28;20109;-84
2022/05/03 02:40:08;;;;;;;4.15;2.58;;;12.10;71.70;;;;;;4978257;28;20084;-84
2022/05/03 02:42:35;;;;;;;5.03;2.88;;;12.10;71.90;;;;;;4981120;28;20026;-85
2022/05/03 02:45:02;;;;;;;5.72;2.97;;;12.10;72.00;;;;;;4978132;28;20122;-84
2022/05/03 02:48:02;;;;;;;5.25;3.05;;;12.00;72.00;;;;;;4946338;28;20054;-84
2022/05/03 02:50:42;;;;;;;4.38;2.90;;;12.00;72.20;;;;;;4999699;28;20030;-84
2022/05/03 02:53:08;;;;;;;5.38;3.15;;;11.90;72.40;;;;;;4979113;28;20022;-84
2022/05/03 02:55:54;;;;;;;6.07;3.58;;;11.90;72.80;;;;;;4962596;28;20025;-85
2022/05/03 02:58:42;;;;;;;7.10;3.67;;;11.90;73.10;;;;;;4978353;28;20080;-84
2022/05/03 03:04:34;;;;;;;6.38;3.85;;;11.80;73.40;;;;;;4995510;28;20092;-84
2022/05/03 03:07:02;;;;;;;7.03;4.20;;;11.80;73.60;;;;;;4978429;28;20030;-84
2022/05/03 03:09:50;;;;;;;7.15;3.75;;;11.70;73.60;;;;;;4977701;28;20027;-84
2022/05/03 03:12:31;;;;;;;6.95;3.53;;;11.70;73.60;;;;;;4995245;28;20109;-84
2022/05/03 03:15:09;;;;;;;7.10;3.83;;;11.70;73.60;;;;;;5009781;28;20030;-84
2022/05/03 03:17:50;;;;;;;6.95;4.07;;;11.70;73.60;;;;;;5000723;28;20437;-91
2022/05/03 03:20:17;;;;;;;5.88;3.63;;;11.60;73.70;;;;;;5002416;28;20082;-84
2022/05/03 03:22:45;;;;;;;6.95;4.00;;;11.60;73.70;;;;;;4985964;28;20011;-90
2022/05/03 03:25:19;;;;;;;7.72;3.72;;;11.60;73.80;;;;;;5001501;28;20011;-84
2022/05/03 03:27:51;;;;;;;5.95;3.97;;;11.60;74.00;;;;;;5000157;28;20519;-86
2022/05/03 03:30:17;;;;;;;8.45;4.40;;;11.50;74.00;;;;;;5018410;28;20034;-84
2022/05/03 03:32:49;;;;;;;6.22;4.20;;;11.50;74.10;;;;;;4953817;28;20038;-85
2022/05/03 03:35:16;;;;;;;6.50;4.22;;;11.50;74.20;;;;;;4977463;28;20030;-84
2022/05/03 03:37:44;;;;;;;6.45;3.65;;;11.40;74.20;;;;;;4961366;28;20141;-84
2022/05/03 03:40:11;;;;;;;7.03;4.07;;;11.40;74.40;;;;;;4977581;28;20033;-84
2022/05/03 03:42:37;;;;;;;6.90;3.83;;;11.40;74.60;;;;;;4977361;28;20030;-87
2022/05/03 03:45:07;;;;;;;7.13;4.03;;;11.40;74.70;;;;;;4961554;28;20030;-84
2022/05/03 03:47:41;;;;;;;6.75;4.10;;;11.30;74.70;;;;;;4958509;28;20141;-84
2022/05/03 03:50:08;;;;;;;5.97;3.80;;;11.30;74.90;;;;;;4978927;28;20109;-84
2022/05/03 03:52:37;;;;;;;7.32;4.13;;;11.30;75.00;;;;;;4975855;28;20054;-84
2022/05/03 03:55:03;;;;;;;6.45;4.05;;;11.20;75.80;;;;;;4974696;28;20049;-84
2022/05/03 03:57:30;;;;;;;6.95;4.35;;;11.20;75.30;;;;;;4959759;28;20031;-84
2022/05/03 03:59:58;;;;;;;6.28;3.70;;;11.20;75.50;;;;;;4959880;28;20041;-84
2022/05/03 04:02:24;;;;;;;6.53;3.95;;;11.10;75.60;;;;;;4975036;28;20464;-84
2022/05/03 04:04:51;;;;;;;5.47;3.42;;;11.10;76.00;;;;;;4973507;28;20027;-84
2022/05/03 04:07:17;;;;;;;7.78;3.80;;;11.10;75.90;;;;;;4941524;28;20038;-84
2022/05/03 04:09:43;;;;;;;6.68;4.20;;;11.10;76.20;;;;;;4956785;28;20038;-85
2022/05/03 04:12:09;;;;;;;8.27;4.35;;;11.00;76.30;;;;;;4957606;28;20030;-84
2022/05/03 04:14:34;;;;;;;6.80;4.00;;;11.00;76.40;;;;;;4973493;28;20470;-84
2022/05/03 04:17:00;;;;;;;7.72;4.57;;;11.00;76.70;;;;;;4941275;28;20042;-84
2022/05/03 04:19:26;;;;;;;7.78;4.32;;;10.90;76.80;;;;;;4974662;28;20031;-84
2022/05/03 04:21:52;;;;;;;8.05;4.30;;;10.90;77.00;;;;;;4974654;28;20054;-84
2022/05/03 04:24:19;;;;;;;6.90;4.18;;;10.90;77.10;;;;;;4973410;28;20023;-84
2022/05/03 04:26:45;;;;;;;8.38;4.50;;;10.90;77.40;;;;;;4972911;28;20491;-85
2022/05/03 04:29:11;;;;;;;5.95;4.00;;;10.90;77.70;;;;;;4973382;28;20034;-84
2022/05/03 04:31:37;;;;;;;7.22;4.10;;;10.80;77.80;;;;;;4957483;28;20498;-84
2022/05/03 04:34:04;;;;;;;7.90;4.18;;;10.80;77.90;;;;;;4957396;28;20462;-84
2022/05/03 04:36:32;;;;;;;8.70;4.20;;;10.80;77.90;;;;;;4973139;28;20382;-84
2022/05/03 04:38:59;;;;;;;6.53;4.13;;;10.80;78.10;;;;;;4957676;28;20027;-84
2022/05/03 04:41:25;;;;;;;13.32;4.70;;;10.80;78.30;;;;;;4957411;28;20084;-84
2022/05/03 04:43:51;;;;;;;10.82;5.18;;;10.70;78.40;;;;;;4974407;28;20182;-85
2022/05/03 04:46:17;;;;;;;7.35;4.75;;;10.70;78.60;;;;;;4958352;28;20587;-85
2022/05/03 04:48:43;;;;;;;8.85;5.07;;;10.70;78.80;;;;;;4979964;28;20018;-84
2022/05/03 04:51:23;;;;;;;7.82;4.82;;;10.70;79.10;;;;;;4979658;28;20047;-86
2022/05/03 04:53:50;;;;;;;8.40;5.10;;;10.70;79.50;;;;;;4997291;28;20130;-85
2022/05/03 04:56:24;;;;;;;7.07;4.90;;;10.70;79.70;;;;;;4979242;28;20065;-85
2022/05/03 04:58:55;;;;;;;7.95;4.85;;;10.70;79.90;;;;;;4978912;28;20080;-84
2022/05/03 05:01:20;;;;;;;10.02;5.75;;;10.70;80.30;;;;;;4979860;28;20030;-85
2022/05/03 05:03:46;;;;;;;9.73;5.07;;;10.70;80.70;;;;;;4996889;28;20023;-86
2022/05/03 05:06:13;;;;;;;12.13;5.50;;;10.70;81.00;;;;;;4979947;28;20025;-84
2022/05/03 05:08:40;;;;;;;7.65;5.15;;;10.70;81.30;;;;;;4980065;28;20498;-84
2022/05/03 05:11:06;;;;;;;7.03;4.88;;;10.70;81.60;;;;;;4980149;28;20113;-84
2022/05/03 05:13:33;;;;;;;8.02;4.97;;;10.70;81.90;;;;;;4998437;28;20109;-84
2022/05/03 05:15:59;;;;;;;7.72;5.55;;;10.70;82.20;;;;;;4980363;28;20113;-84
2022/05/03 05:18:26;;;;;;;8.13;4.38;;;10.70;82.60;;;;;;4997677;28;20138;-84
2022/05/03 05:20:52;;;;;;;8.13;4.47;;;10.70;82.80;;;;;;4967593;28;20032;-84
2022/05/03 05:23:18;;;;;;;6.00;4.32;;;10.70;83.10;;;;;;4972234;28;20023;-84
2022/05/03 05:25:44;;;;;;;6.88;4.32;;;10.80;83.40;;;;;;4966439;28;20057;-84
2022/05/03 05:28:10;;;;;;;7.32;4.68;;;10.70;83.80;;;;;;4947056;28;20112;-86
2022/05/03 05:30:35;;;;;;;8.68;5.07;;;10.70;84.00;;;;;;4996097;28;20023;-86
2022/05/03 05:33:01;;;;;;;7.35;4.40;;;10.80;84.40;;;;;;4995313;28;20035;-84
2022/05/03 05:35:26;;;;;;;7.07;4.50;;;10.80;84.80;;;;;;4979567;28;20423;-84
2022/05/03 05:37:52;;;;;;;8.35;4.70;;;10.80;85.10;;;;;;4979458;28;20045;-85
2022/05/03 05:40:18;;;;;;;6.45;4.32;;;10.90;85.50;;;;;;4963494;28;20049;-84
2022/05/03 05:42:43;;;;;;;6.63;4.00;;;10.90;85.90;;;;;;4996978;28;20027;-84
2022/05/03 05:45:09;;;;;;;6.43;4.75;;;10.90;86.20;;;;;;4962819;28;20031;-84
2022/05/03 05:47:35;;;;;;;6.50;4.45;;;10.90;86.40;;;;;;4946505;28;20136;-84
2022/05/03 05:50:01;;;;;;;8.38;4.10;;;11.00;86.70;;;;;;4979043;28;20093;-84
2022/05/03 05:55:10;;;;;;;6.97;4.10;;;11.00;87.20;;;;;;4967769;28;20429;-84
2022/05/03 05:57:36;;;;;;;6.88;4.38;;;11.00;87.60;;;;;;4978657;28;20038;-84
2022/05/03 06:00:03;;;;;;;6.70;4.07;;;11.10;87.90;;;;;;4995522;28;20030;-85
2022/05/03 06:02:28;;;;;;;5.47;3.28;;;11.10;88.20;;;;;;4996338;28;20022;-84
2022/05/03 06:04:54;;;;;;;6.13;3.30;;;11.10;88.50;;;;;;4962617;28;20122;-86
2022/05/03 06:07:19;;;;;;;6.18;3.78;;;11.10;88.70;;;;;;4962955;28;20394;-84
2022/05/03 06:09:45;;;;;;;5.47;3.15;;;11.20;89.00;;;;;;4962644;28;20454;-84
2022/05/03 06:12:11;;;;;;;6.15;3.03;;;11.20;89.30;;;;;;4962461;28;20493;-84
2022/05/03 06:14:37;;;;;;;4.90;3.30;;;11.20;89.50;;;;;;4996735;28;20074;-84
2022/05/03 06:17:03;;;;;;;4.88;3.22;;;11.30;89.90;;;;;;4947312;28;20379;-84
2022/05/03 06:19:28;;;;;;;4.53;2.97;;;11.30;90.00;;;;;;4979227;28;20077;-84
2022/05/03 06:21:54;;;;;;;4.10;2.75;;;11.30;90.10;;;;;;4962916;28;20037;-84
2022/05/03 06:24:20;;;;;;;5.00;2.97;;;11.40;90.30;;;;;;4978630;28;20106;-84
2022/05/03 06:26:46;;;;;;;3.50;2.45;;;11.40;90.40;;;;;;4948533;28;20120;-84
2022/05/03 06:29:11;;;;;;;5.00;2.50;;;11.40;90.50;;;;;;4963941;28;20176;-84
2022/05/03 06:31:42;;;;;;;3.80;2.50;;;11.40;90.60;;;;;;4964626;28;20052;-85
2022/05/03 06:34:08;;;;;;;4.68;2.22;;;11.50;90.70;;;;;;4997220;28;20340;-85
2022/05/03 06:36:35;;;;;;;3.97;2.22;;;11.50;90.80;;;;;;4965067;28;20034;-85
2022/05/03 06:39:05;;;;;;;3.15;2.00;;;11.60;90.90;;;;;;4981898;28;20054;-84
2022/05/03 06:41:32;;;;;;;3.72;2.17;;;11.60;90.90;;;;;;4985642;28;20010;-85
2022/05/03 06:43:58;;;;;;;3.45;2.00;;;11.60;91.00;;;;;;5004143;28;20061;-87
2022/05/03 06:46:25;;;;;;;4.10;1.92;;;11.70;91.40;;;;;;4964866;28;20121;-86
2022/05/03 06:48:51;;;;;;;4.50;1.90;;;11.70;91.10;;;;;;4998231;28;20081;-85
2022/05/03 06:51:16;;;;;;;4.13;2.13;;;11.80;91.20;;;;;;4979848;28;20022;-85
2022/05/03 06:53:42;;;;;;;3.45;1.88;;;11.80;91.20;;;;;;4997429;28;20030;-84
2022/05/03 06:56:09;;;;;;;3.17;2.03;;;11.90;91.20;;;;;;4981016;28;20040;-85
2022/05/03 06:58:35;;;;;;;3.03;2.00;;;11.90;91.30;;;;;;4969267;28;20104;-85
2022/05/03 07:01:11;;;;;;;5.20;2.03;;;12.00;91.30;;;;;;4999868;28;20034;-91
2022/05/03 07:03:38;;;;;;;3.78;2.00;;;12.10;91.50;;;;;;5001205;28;20037;-86
2022/05/03 07:06:04;;;;;;;3.75;2.10;;;12.20;91.60;;;;;;5001139;28;20022;-87
2022/05/03 07:08:31;;;;;;;4.35;2.30;;;12.20;91.60;;;;;;4998144;28;20059;-85
2022/05/03 07:10:57;;;;;;;4.03;2.20;;;12.30;91.80;;;;;;4997659;28;20037;-86
2022/05/03 07:13:25;;;;;;;3.45;2.40;;;12.40;91.80;;;;;;4997651;28;20026;-85
2022/05/03 07:15:53;;;;;;;3.85;2.38;;;12.50;91.60;;;;;;4978341;28;20038;-86
2022/05/03 07:23:31;;;;;;;4.85;2.85;;;12.70;91.30;;;;;;5018457;28;20062;-86
2022/05/03 07:25:58;;;;;;;6.90;3.25;;;12.80;91.20;;;;;;4984879;28;20041;-85
2022/05/03 07:28:23;;;;;;;4.40;3.08;;;12.90;91.10;;;;;;5016754;28;20029;-86
2022/05/03 07:30:49;;;;;;;4.30;2.65;;;13.00;90.90;;;;;;5016077;28;20071;-86
2022/05/03 07:33:17;;;;;;;4.63;2.70;;;13.10;90.80;;;;;;5017335;28;20470;-86
2022/05/03 07:35:43;;;;;;;4.63;2.65;;;13.20;90.60;;;;;;4998196;28;20033;-85
2022/05/03 07:38:09;;;;;;;4.65;2.58;;;13.30;90.20;;;;;;4996990;28;20474;-86
2022/05/03 07:40:35;;;;;;;3.97;2.60;;;13.30;90.00;;;;;;4981173;28;20022;-86
2022/05/03 07:43:03;;;;;;;4.85;2.72;;;13.40;89.80;;;;;;5014298;28;20029;-86
2022/05/03 07:45:29;;;;;;;8.82;3.50;;;13.50;89.30;;;;;;4996700;28;20485;-86
2022/05/03 07:47:54;;;;;;;3.85;2.38;;;13.60;88.40;;;;;;4996915;28;20064;-86
2022/05/03 07:50:20;;;;;;;4.18;2.40;;;13.70;88.00;;;;;;5006480;28;20022;-86
2022/05/03 07:52:48;;;;;;;5.32;2.60;;;13.80;87.70;;;;;;4964786;28;20030;-86
2022/05/03 07:55:14;;;;;;;3.83;2.83;;;13.90;87.10;;;;;;4980902;28;20359;-85
2022/05/03 07:57:40;;;;;;;4.63;2.83;;;14.00;87.40;;;;;;4996482;28;20032;-85
2022/05/03 08:00:06;;;;;;;3.65;2.65;;;14.10;87.50;;;;;;4976280;28;20137;-86
2022/05/03 08:02:32;;;;;;;5.35;2.78;;;14.20;87.20;;;;;;4984809;28;20080;-86
2022/05/03 08:04:58;;;;;;;4.05;2.67;;;14.30;86.90;;;;;;4990191;28;20475;-86
2022/05/03 08:07:24;;;;;;;4.25;2.83;;;14.40;86.50;;;;;;5002437;28;20521;-86
2022/05/03 08:09:49;;;;;;;6.88;3.42;;;14.50;87.30;;;;;;4986470;28;20094;-86
2022/05/03 08:12:16;;;;;;;4.82;3.28;;;14.60;86.40;;;;;;4986952;28;20046;-85
2022/05/03 08:14:42;;;;;;;4.38;2.97;;;14.80;86.00;;;;;;4992325;28;20374;-85
2022/05/03 08:17:08;;;;;;;5.18;3.13;;;14.90;85.10;;;;;;4999578;28;20037;-86
2022/05/03 08:19:35;;;;;;;6.60;3.03;;;14.90;84.60;;;;;;4987080;28;20026;-85
2022/05/03 08:22:01;;;;;;;5.32;2.95;;;15.10;84.00;;;;;;5008703;28;20046;-84
2022/05/03 08:24:27;;;;;;;5.65;3.00;;;15.20;84.00;;;;;;4985676;28;20097;-85
2022/05/03 08:26:53;;;;;;;5.07;3.47;;;15.20;83.70;;;;;;4983611;28;20097;-84
2022/05/03 08:29:19;;;;;;;5.72;3.70;;;15.30;83.20;;;;;;5005419;28;20053;-84
2022/05/03 08:31:46;;;;;;;6.25;3.53;;;15.50;83.00;;;;;;4980302;28;20026;-83
2022/05/03 08:34:13;;;;;;;5.47;3.72;;;15.60;83.10;;;;;;4964209;28;20030;-84
2022/05/03 08:36:38;;;;;;;4.78;3.10;;;15.70;83.50;;;;;;4980800;28;20443;-84
2022/05/03 08:42:01;;;;;;;6.55;3.90;;;15.90;82.80;;;;;;5005071;28;20428;-84
2022/05/03 08:44:28;;;;;;;7.82;3.45;;;16.00;82.10;;;;;;5008023;28;20057;-85
2022/05/03 08:47:02;;;;;;;4.97;3.38;;;16.10;82.10;;;;;;4981016;28;20033;-85
2022/05/03 08:49:39;;;;;;;4.75;3.55;;;16.10;82.20;;;;;;5016856;28;20017;-85
2022/05/03 08:52:08;;;;;;;5.72;3.53;;;16.20;82.00;;;;;;4996488;28;20033;-85
2022/05/03 08:54:37;;;;;;;8.38;4.30;;;16.30;81.60;;;;;;4984304;28;20026;-85
2022/05/03 08:57:07;;;;;;;5.88;3.53;;;16.40;81.80;;;;;;4979751;28;20485;-85
2022/05/03 08:59:37;;;;;;;5.40;3.55;;;16.50;81.00;;;;;;5000092;28;20041;-87
2022/05/03 09:02:03;;;;;;;5.88;3.55;;;16.60;81.00;;;;;;4999407;28;20037;-84
2022/05/03 09:04:29;;;;;;;7.13;3.75;;;16.70;80.80;;;;;;4999886;28;20128;-84
2022/05/03 09:06:55;;;;;;;5.82;4.00;;;16.80;80.90;;;;;;4999150;28;20068;-87
2022/05/03 09:09:21;;;;;;;6.05;4.13;;;16.90;80.30;;;;;;4991198;28;20378;-85
2022/05/03 09:11:53;;;;;;;6.13;3.72;;;17.00;79.60;;;;;;4998818;28;20034;-86
2022/05/03 09:14:40;;;;;;;5.75;3.50;;;17.00;79.40;;;;;;5016780;28;20044;-86
2022/05/03 09:17:06;;;;;;;6.72;4.00;;;17.10;80.00;;;;;;5016293;28;20044;-85
2022/05/03 09:19:32;;;;;;;5.55;3.60;;;17.20;80.20;;;;;;4998426;28;20021;-86
2022/05/03 09:25:04;;;;;;;5.57;3.78;;;17.30;79.60;;;;;;5011868;28;20037;-84
2022/05/03 09:27:32;;;;;;;5.85;3.83;;;17.40;79.30;;;;;;4999247;28;20382;-84
2022/05/03 09:30:06;;;;;;;5.35;3.60;;;17.40;79.50;;;;;;4999113;28;20109;-84
2022/05/03 09:43:10;;;;;;;6.18;4.10;;;17.70;80.20;;;;;;4995853;28;20097;-83
2022/05/03 09:45:37;;;;;;;5.53;3.95;;;17.80;80.50;;;;;;4946897;28;20035;-83
2022/05/03 09:48:04;;;;;;;5.53;3.95;;;17.80;80.00;;;;;;4963344;28;20039;-83
2022/05/03 09:50:29;;;;;;;6.07;3.90;;;17.80;79.20;;;;;;4978897;28;20018;-83
2022/05/03 09:53:08;;;;;;;5.10;3.35;;;17.90;79.40;;;;;;4996249;28;20027;-83
2022/05/03 09:55:37;;;;;;;6.43;4.28;;;17.90;79.60;;;;;;4996551;28;20477;-84
2022/05/03 09:58:05;;;;;;;8.00;4.60;;;18.00;79.80;;;;;;4979257;28;20030;-83
2022/05/03 10:00:33;;;;;;;9.70;4.57;;;18.00;78.90;;;;;;4948035;28;20451;-83
2022/05/03 10:03:28;;;;;;;5.72;4.25;;;18.00;78.30;;;;;;4978847;28;20034;-84
2022/05/03 10:05:56;;;;;;;6.70;4.18;;;18.10;78.20;;;;;;4962815;28;20034;-85
2022/05/03 10:08:23;;;;;;;6.38;4.05;;;18.10;78.20;;;;;;4962876;28;20494;-82
2022/05/03 10:10:56;;;;;;;6.35;4.85;;;18.10;78.10;;;;;;4946369;28;20536;-85
2022/05/03 10:13:21;;;;;;;7.25;5.30;;;18.20;78.30;;;;;;4978607;28;20425;-82
2022/05/03 10:21:27;;;;;;;8.95;5.38;;;18.20;77.10;;;;;;4997316;28;20106;-82
2022/05/03 10:24:05;;;;;;;7.55;5.35;;;18.30;77.50;;;;;;4979814;28;20052;-82
2022/05/03 10:26:58;;;;;;;6.72;4.30;;;18.30;77.90;;;;;;4978529;28;20479;-83
2022/05/03 10:29:25;;;;;;;6.88;4.85;;;18.40;78.30;;;;;;4995760;28;20022;-83
2022/05/03 10:31:53;;;;;;;7.40;4.95;;;18.40;78.40;;;;;;4978225;28;20026;-84
2022/05/03 10:34:53;;;;;;;6.35;4.75;;;18.50;78.30;;;;;;4995472;28;20018;-84
2022/05/03 10:37:27;;;;;;;7.32;5.20;;;18.60;77.70;;;;;;4995850;28;20526;-86
2022/05/03 10:40:00;;;;;;;7.68;4.97;;;18.60;76.90;;;;;;4996126;28;20022;-84
2022/05/03 10:42:28;;;;;;;6.90;4.85;;;18.70;76.40;;;;;;4975372;28;20055;-83
2022/05/03 10:44:53;;;;;;;6.53;4.88;;;18.70;76.00;;;;;;4992702;28;20019;-84
2022/05/03 10:47:41;;;;;;;6.78;5.03;;;18.70;76.50;;;;;;4998160;28;20046;-94
2022/05/03 10:50:13;;;;;;;7.05;5.00;;;18.70;76.70;;;;;;4992063;28;20022;-82
2022/05/03 10:52:58;;;;;;;7.63;5.45;;;18.80;76.70;;;;;;4997401;28;20094;-81
2022/05/03 10:55:26;;;;;;;7.68;4.72;;;18.80;76.20;;;;;;4987483;28;20027;-84
2022/05/03 10:58:18;;;;;;;7.35;5.43;;;18.80;76.00;;;;;;4997587;28;20085;-84
2022/05/03 11:01:09;;;;;;;8.10;5.10;;;18.90;75.70;;;;;;4997509;28;20043;-84
2022/05/03 11:04:01;;;;;;;7.18;5.13;;;18.90;75.30;;;;;;4977595;28;20077;-82
2022/05/03 11:06:26;;;;;;;8.85;5.47;;;19.00;75.60;;;;;;4967102;28;20038;-83
2022/05/03 11:09:04;;;;;;;8.30;5.18;;;19.00;75.40;;;;;;4976874;28;20039;-83
2022/05/03 11:11:39;;;;;;;7.68;5.13;;;19.10;74.70;;;;;;4977562;28;20049;-83
2022/05/03 11:14:24;;;;;;;8.70;5.07;;;19.10;74.80;;;;;;4981376;28;20033;-83
2022/05/03 11:17:04;;;;;;;6.15;4.38;;;19.20;74.50;;;;;;4977388;28;20022;-83
2022/05/03 11:19:36;;;;;;;6.07;4.20;;;19.30;75.00;;;;;;4975893;28;20034;-83
2022/05/03 11:22:09;;;;;;;7.35;4.45;;;19.40;75.50;;;;;;4974881;28;20402;-83
2022/05/03 11:24:36;;;;;;;6.47;4.50;;;19.40;75.40;;;;;;4959906;28;20033;-83
2022/05/03 11:27:08;;;;;;;7.10;4.57;;;19.50;75.00;;;;;;4976820;28;20031;-83
2022/05/03 11:29:41;;;;;;;6.10;4.30;;;19.60;74.40;;;;;;4976158;28;20037;-83
2022/05/03 11:32:08;;;;;;;5.15;3.90;;;19.60;73.30;;;;;;4975326;28;20062;-83
2022/05/03 11:34:34;;;;;;;5.07;3.35;;;19.70;73.00;;;;;;4975009;28;20027;-83
2022/05/03 11:37:01;;;;;;;6.88;3.80;;;19.70;73.30;;;;;;4973609;28;20126;-83
2022/05/03 11:39:27;;;;;;;5.57;4.30;;;19.80;73.50;;;;;;4975494;28;20042;-83
2022/05/03 11:41:53;;;;;;;10.50;4.53;;;19.80;73.30;;;;;;4973344;28;20054;-83
2022/05/03 11:44:20;;;;;;;4.68;3.40;;;19.80;72.90;;;;;;4957986;28;20026;-82
2022/05/03 11:46:48;;;;;;;6.57;3.42;;;19.90;72.90;;;;;;4973623;28;20383;-85
2022/05/03 11:49:15;;;;;;;4.72;3.42;;;20.00;73.00;;;;;;4973984;28;20380;-83
2022/05/03 11:57:32;;;;;;;6.85;3.92;;;20.10;72.80;;;;;;4974786;28;20097;-83
2022/05/03 11:59:59;;;;;;;6.60;3.90;;;20.10;73.00;;;;;;4976034;28;20065;-83
2022/05/03 12:02:32;;;;;;;6.15;4.05;;;20.20;72.70;;;;;;4957669;28;20126;-83
2022/05/03 12:05:15;;;;;;;6.68;4.70;;;20.20;72.40;;;;;;4975022;28;20027;-84
2022/05/03 12:07:52;;;;;;;6.70;4.00;;;20.30;72.30;;;;;;4973624;28;20030;-83
2022/05/03 12:10:35;;;;;;;5.63;4.13;;;20.30;72.00;;;;;;4973682;28;20439;-83
2022/05/03 12:13:12;;;;;;;5.80;4.03;;;20.30;72.30;;;;;;4974598;28;20372;-83
2022/05/03 12:15:45;;;;;;;5.82;4.10;;;20.40;72.20;;;;;;4974585;28;20023;-83
2022/05/03 12:18:20;;;;;;;6.03;4.50;;;20.40;71.60;;;;;;4973459;28;20031;-83
2022/05/03 12:20:54;;;;;;;6.85;4.00;;;20.30;70.70;;;;;;4973029;28;20027;-85
2022/05/03 12:23:22;;;;;;;5.95;3.67;;;20.40;70.70;;;;;;4973257;28;20027;-83
2022/05/03 12:25:56;;;;;;;4.93;3.65;;;20.30;70.80;;;;;;4972875;28;20039;-83
2022/05/03 12:28:35;;;;;;;5.60;3.05;;;20.30;70.80;;;;;;4974748;28;20039;-83
2022/05/03 12:31:04;;;;;;;7.15;4.57;;;20.30;70.20;;;;;;4973147;28;20026;-83
2022/05/03 12:33:30;;;;;;;7.47;4.50;;;20.30;70.20;;;;;;4972993;28;20093;-84
2022/05/03 12:35:56;;;;;;;5.30;3.80;;;20.30;70.70;;;;;;4957184;28;20125;-83
2022/05/03 12:38:24;;;;;;;6.22;3.70;;;20.30;70.50;;;;;;4973205;28;20546;-83
2022/05/03 12:40:57;;;;;;;5.13;3.00;;;20.30;70.70;;;;;;4972501;28;20027;-84
2022/05/03 12:43:26;;;;;;;4.35;3.15;;;20.30;70.90;;;;;;4993219;28;20060;-83
2022/05/03 12:46:01;;;;;;;3.78;2.60;;;20.30;71.30;;;;;;4976390;28;20176;-83
2022/05/03 12:48:27;;;;;;;5.28;3.05;;;20.30;71.80;;;;;;4976029;28;20050;-83
2022/05/03 12:50:55;;;;;;;6.18;3.03;;;20.30;71.70;;;;;;4993567;28;20042;-84
2022/05/03 12:53:29;;;;;;;7.30;2.92;;;20.30;71.50;;;;;;4976267;28;20054;-83
2022/05/03 12:55:56;;;;;;;5.47;3.17;;;20.30;71.80;;;;;;4975885;28;20033;-83
2022/05/03 12:58:24;;;;;;;4.68;3.30;;;20.30;71.80;;;;;;4976431;28;20049;-83
2022/05/03 13:00:57;;;;;;;6.78;4.68;;;20.30;71.70;;;;;;4993250;28;20576;-85
2022/05/03 13:03:23;;;;;;;6.97;3.90;;;20.30;71.20;;;;;;4992631;28;20019;-84
2022/05/03 13:05:50;;;;;;;5.72;3.72;;;20.30;71.10;;;;;;4974622;28;20029;-83
2022/05/03 13:08:17;;;;;;;5.47;3.83;;;20.20;70.90;;;;;;4994398;28;20045;-85
2022/05/03 13:10:43;;;;;;;6.43;4.32;;;20.20;71.30;;;;;;4978648;28;20030;-84
2022/05/03 13:13:09;;;;;;;9.73;5.10;;;20.30;71.60;;;;;;4996850;28;20025;-84
2022/05/03 13:15:35;;;;;;;8.50;5.30;;;20.20;71.90;;;;;;4978957;28;20569;-85
2022/05/03 13:18:01;;;;;;;10.30;7.15;;;20.20;71.80;;;;;;4996540;28;20105;-84
2022/05/03 13:20:27;;;;;;;13.38;9.00;;;20.20;72.00;;;;;;4996368;28;20400;-84
2022/05/03 13:22:54;;;;;;;17.95;11.45;;;20.20;72.50;;;;;;4996278;28;20035;-84
2022/05/03 13:25:20;;;;;;;18.42;12.65;;;20.20;72.80;;;;;;4978881;28;20018;-84
2022/05/03 13:27:47;;;;;;;20.17;13.63;;;20.20;73.30;;;;;;4978349;28;20109;-84
2022/05/03 13:30:13;;;;;;;23.27;15.57;;;20.20;73.50;;;;;;4996313;28;20025;-84
2022/05/03 13:32:39;;;;;;;22.85;16.10;;;20.10;73.80;;;;;;4962901;28;20072;-84
2022/05/03 13:35:05;;;;;;;24.33;15.82;;;20.10;73.90;;;;;;4962966;28;20454;-83
2022/05/03 13:40:30;;;;;;;26.25;17.10;;;20.10;74.40;;;;;;4967933;28;20045;-84
2022/05/03 13:43:01;;;;;;;27.55;17.52;;;20.00;74.50;;;;;;4978189;28;20042;-85
2022/05/03 13:45:28;;;;;;;21.95;14.98;;;20.00;74.60;;;;;;4963207;28;20041;-84
2022/05/03 13:47:54;;;;;;;25.27;16.20;;;20.00;74.80;;;;;;4978727;28;20474;-84
2022/05/03 13:50:20;;;;;;;25.17;16.05;;;20.00;75.00;;;;;;4978778;28;20041;-84
2022/05/03 13:52:47;;;;;;;23.65;15.35;;;19.90;75.10;;;;;;4978800;28;20030;-87
2022/05/03 13:55:13;;;;;;;24.45;15.65;;;19.90;75.20;;;;;;4978534;28;20493;-84
2022/05/03 13:57:39;;;;;;;25.15;16.83;;;19.90;75.40;;;;;;4978432;28;20043;-84